Time;durP1;ratioP1;P1;durP2;ratioP2;P2;SDS_P1;SDS_P2;PMS_P1;PMS_P2;Temp;Humidity;BMP_temperature;BMP_pressure;BME280_temperature;BME280_humidity;BME280_pressure;Samples;Min_cycle;Max_cycle;Signal;HPM_P1;HPM_P2
2022/01/04 00:02:23;;;;;;;2.33;1.20;;;;;;;8.67;69.92;94748.88;5098351;27;20040;-75
2022/01/04 00:04:49;;;;;;;2.78;0.93;;;;;;;8.71;70.01;94746.50;5090068;28;20047;-75
2022/01/04 00:07:14;;;;;;;2.95;1.23;;;;;;;8.54;71.10;94746.91;5112252;27;20449;-75
2022/01/04 00:09:42;;;;;;;1.98;0.98;;;;;;;8.63;70.19;94735.56;5097250;27;20062;-76
2022/01/04 00:14:54;;;;;;;3.22;1.20;;;;;;;8.53;70.51;94726.97;5118678;27;20546;-76
2022/01/04 00:17:19;;;;;;;3.20;1.13;;;;;;;8.51;71.19;94721.25;5102717;27;20044;-75
2022/01/04 00:19:46;;;;;;;1.63;0.90;;;;;;;8.53;71.44;94719.09;5089825;28;20044;-75
2022/01/04 00:22:12;;;;;;;2.15;1.27;;;;;;;8.60;71.04;94714.31;5088816;28;20063;-76
2022/01/04 00:24:37;;;;;;;1.73;1.00;;;;;;;8.60;70.38;94709.09;5105434;28;20048;-75
2022/01/04 00:27:03;;;;;;;3.90;1.20;;;;;;;8.53;71.18;94704.16;5094360;28;20040;-75
2022/01/04 00:29:29;;;;;;;1.30;1.00;;;;;;;8.53;70.87;94703.38;5103956;28;20046;-75
2022/01/04 00:31:54;;;;;;;3.00;1.20;;;;;;;8.47;71.71;94700.78;5081840;27;20557;-75
2022/01/04 00:34:20;;;;;;;2.83;1.30;;;;;;;8.40;73.06;94700.28;5105626;27;20036;-76
2022/01/04 00:36:45;;;;;;;2.63;1.38;;;;;;;8.30;74.48;94695.13;5076784;28;20489;-75
2022/01/04 00:39:11;;;;;;;3.58;1.40;;;;;;;8.25;73.73;94688.09;5091797;28;20040;-75
2022/01/04 00:41:36;;;;;;;1.60;1.13;;;;;;;8.21;74.33;94681.06;5106197;28;20043;-75
2022/01/04 00:44:02;;;;;;;4.78;1.60;;;;;;;8.11;74.78;94680.06;5100339;28;20062;-75
2022/01/04 00:46:28;;;;;;;1.88;1.02;;;;;;;8.06;74.43;94664.41;5102036;28;20048;-75
2022/01/04 00:49:11;;;;;;;3.42;1.20;;;;;;;8.06;75.80;94659.16;5095957;28;20075;-74
2022/01/04 00:51:42;;;;;;;3.22;1.40;;;;;;;8.01;75.95;94646.09;5109014;28;20047;-75
2022/01/04 00:54:08;;;;;;;1.90;1.17;;;;;;;8.01;76.05;94656.56;5095830;28;20048;-75
2022/01/04 00:56:34;;;;;;;3.42;1.50;;;;;;;7.99;73.78;94648.22;5075667;28;20101;-75
2022/01/04 00:59:01;;;;;;;2.03;1.23;;;;;;;8.04;74.27;94645.53;5089213;28;20047;-75
2022/01/04 01:01:27;;;;;;;1.60;1.20;;;;;;;8.06;72.88;94642.63;5096528;27;20485;-75
2022/01/04 01:03:53;;;;;;;2.55;1.45;;;;;;;8.14;72.89;94640.22;5125070;27;20040;-75
2022/01/04 01:06:19;;;;;;;3.53;1.20;;;;;;;8.24;72.94;94635.94;5088649;28;20093;-74
2022/01/04 01:08:44;;;;;;;3.05;1.25;;;;;;;8.13;71.82;94628.19;5100020;28;20825;-75
2022/01/04 01:11:10;;;;;;;3.50;1.30;;;;;;;8.30;71.13;94627.78;5088727;28;20055;-75
2022/01/04 01:13:37;;;;;;;2.13;1.08;;;;;;;8.37;69.56;94632.69;5088896;28;20066;-75
2022/01/04 01:16:03;;;;;;;3.58;1.00;;;;;;;8.55;67.80;94627.81;5088581;28;20143;-76
2022/01/04 01:18:29;;;;;;;2.80;1.30;;;;;;;8.57;67.45;94625.72;5078584;28;20042;-75
2022/01/04 01:20:55;;;;;;;1.40;1.00;;;;;;;8.58;68.03;94627.28;5100857;27;20508;-76
2022/01/04 01:23:21;;;;;;;3.33;1.30;;;;;;;8.76;67.16;94616.06;5108113;27;20040;-75
2022/01/04 01:25:47;;;;;;;1.15;1.00;;;;;;;8.78;66.23;94621.81;5088476;28;20085;-74
2022/01/04 01:28:14;;;;;;;1.00;0.90;;;;;;;8.85;65.43;94616.25;5091447;28;20114;-74
2022/01/04 01:30:41;;;;;;;3.20;1.30;;;;;;;8.83;65.60;94606.03;5099242;28;20043;-74
2022/01/04 01:33:07;;;;;;;2.58;1.23;;;;;;;8.76;67.04;94613.44;5087613;28;20040;-74
2022/01/04 01:35:34;;;;;;;1.80;1.10;;;;;;;8.93;66.21;94622.72;5088013;28;20054;-74
2022/01/04 01:38:00;;;;;;;2.15;1.10;;;;;;;8.96;65.45;94616.91;5097018;28;20043;-74
2022/01/04 01:40:26;;;;;;;3.95;1.40;;;;;;;9.04;65.30;94597.91;5088474;28;20067;-74
2022/01/04 01:42:52;;;;;;;2.63;0.88;;;;;;;9.12;64.91;94589.41;5092383;27;20743;-74
2022/01/04 01:45:18;;;;;;;1.85;1.20;;;;;;;9.21;64.70;94594.03;5106481;27;20501;-73
2022/01/04 01:47:44;;;;;;;3.17;1.30;;;;;;;9.22;64.68;94579.84;5101733;28;20104;-74
2022/01/04 01:50:11;;;;;;;3.83;1.20;;;;;;;9.21;64.62;94576.44;5108244;27;20092;-74
2022/01/04 01:52:39;;;;;;;1.85;1.42;;;;;;;9.22;65.32;94571.97;5091292;27;20040;-74
2022/01/04 01:55:05;;;;;;;1.88;1.08;;;;;;;9.25;64.35;94558.25;5094049;27;20359;-74
2022/01/04 01:57:32;;;;;;;2.85;1.10;;;;;;;9.13;64.93;94556.84;5110339;28;20040;-73
2022/01/04 01:59:57;;;;;;;3.38;1.15;;;;;;;9.19;64.19;94547.84;5106267;28;20050;-72
2022/01/04 02:02:23;;;;;;;3.20;1.00;;;;;;;9.16;64.07;94540.53;5089163;27;20094;-74
2022/01/04 02:04:49;;;;;;;2.75;1.00;;;;;;;9.21;64.34;94538.91;5114150;28;20031;-74
2022/01/04 02:07:18;;;;;;;2.65;1.08;;;;;;;9.22;64.13;94537.84;5122512;28;20040;-74
2022/01/04 02:09:52;;;;;;;5.43;1.15;;;;;;;9.18;64.65;94525.28;5110381;28;20637;-74
2022/01/04 02:12:20;;;;;;;1.13;0.90;;;;;;;9.22;64.28;94516.84;5100454;28;20048;-74
2022/01/04 02:14:49;;;;;;;2.03;1.20;;;;;;;9.19;64.11;94516.34;5088052;28;20059;-74
2022/01/04 02:17:15;;;;;;;2.40;1.13;;;;;;;9.15;64.20;94515.34;5087914;28;20184;-74
2022/01/04 02:19:41;;;;;;;3.25;1.27;;;;;;;9.10;64.21;94507.53;5088334;28;20048;-74
2022/01/04 02:22:06;;;;;;;2.83;1.30;;;;;;;9.04;66.16;94506.06;5114890;28;20054;-74
2022/01/04 02:24:33;;;;;;;1.40;1.23;;;;;;;9.04;65.69;94497.38;5103318;28;20043;-74
2022/01/04 02:26:59;;;;;;;3.13;1.38;;;;;;;8.97;65.24;94487.25;5097941;28;20043;-74
2022/01/04 02:29:24;;;;;;;2.55;1.17;;;;;;;8.89;64.79;94480.03;5110336;28;20046;-74
2022/01/04 02:31:50;;;;;;;1.90;1.20;;;;;;;8.87;65.72;94482.16;5101601;28;20040;-74
2022/01/04 02:34:15;;;;;;;1.83;1.10;;;;;;;8.91;64.83;94478.69;5104106;28;20043;-74
2022/01/04 02:36:41;;;;;;;3.33;1.40;;;;;;;8.92;64.00;94479.44;5112144;28;20043;-74
2022/01/04 02:39:07;;;;;;;1.85;1.10;;;;;;;8.84;64.59;94473.00;5082123;28;20072;-74
2022/01/04 02:41:32;;;;;;;2.65;1.20;;;;;;;8.84;64.35;94463.28;5087919;28;20036;-74
2022/01/04 02:43:58;;;;;;;2.35;1.10;;;;;;;8.87;64.31;94458.53;5103881;28;20047;-74
2022/01/04 02:46:23;;;;;;;1.83;1.30;;;;;;;8.75;65.57;94444.00;5101495;28;20085;-74
2022/01/04 02:48:49;;;;;;;2.28;1.20;;;;;;;8.70;65.39;94441.44;5103980;28;20042;-74
2022/01/04 02:51:18;;;;;;;3.58;1.27;;;;;;;8.66;66.79;94443.06;5102199;28;20044;-74
2022/01/04 02:53:44;;;;;;;2.25;1.30;;;;;;;8.62;67.42;94434.19;5092197;28;20062;-74
2022/01/04 02:56:11;;;;;;;2.78;1.33;;;;;;;8.64;67.25;94413.72;5088261;28;20059;-74
2022/01/04 02:58:37;;;;;;;2.83;1.30;;;;;;;8.58;67.26;94420.13;5110446;28;20044;-74
2022/01/04 03:01:03;;;;;;;3.53;1.35;;;;;;;8.55;68.15;94412.78;5094818;28;20058;-74
2022/01/04 03:03:30;;;;;;;2.72;1.17;;;;;;;8.55;68.32;94412.78;5103223;28;20490;-73
2022/01/04 03:05:56;;;;;;;2.53;1.17;;;;;;;8.60;67.87;94399.63;5084827;28;20055;-75
2022/01/04 03:08:22;;;;;;;1.63;1.10;;;;;;;8.63;67.56;94393.81;5100291;28;20528;-74
2022/01/04 03:10:48;;;;;;;3.38;1.27;;;;;;;8.66;68.10;94393.22;5091498;28;20040;-74
2022/01/04 03:13:16;;;;;;;2.58;1.10;;;;;;;8.59;68.54;94392.81;5087506;28;20047;-74
2022/01/04 03:15:45;;;;;;;2.78;1.40;;;;;;;8.71;67.76;94395.78;5087504;28;20071;-74
2022/01/04 03:18:11;;;;;;;3.80;1.10;;;;;;;8.72;67.78;94384.25;5072711;28;20137;-74
2022/01/04 03:20:37;;;;;;;4.10;1.35;;;;;;;8.66;69.15;94383.53;5095741;28;20550;-73
2022/01/04 03:23:02;;;;;;;2.40;1.02;;;;;;;8.66;69.06;94377.50;5098582;27;20082;-74
2022/01/04 03:25:28;;;;;;;1.38;1.20;;;;;;;8.61;70.25;94374.97;5096097;28;20048;-74
2022/01/04 03:27:54;;;;;;;1.27;1.10;;;;;;;8.47;72.07;94364.41;5094589;28;20044;-74
2022/01/04 03:30:19;;;;;;;2.22;1.20;;;;;;;8.48;71.77;94361.50;5073156;28;20050;-74
2022/01/04 03:32:45;;;;;;;2.47;1.20;;;;;;;8.40;72.18;94348.97;5090879;28;20536;-73
2022/01/04 03:35:11;;;;;;;1.52;1.15;;;;;;;8.35;72.21;94341.19;5097196;28;20043;-73
2022/01/04 03:37:37;;;;;;;2.90;1.48;;;;;;;8.32;71.69;94336.53;5096287;28;20040;-73
2022/01/04 03:40:05;;;;;;;4.22;1.45;;;;;;;8.31;71.81;94335.72;5090734;28;20040;-74
2022/01/04 03:42:30;;;;;;;1.67;1.00;;;;;;;8.31;71.29;94330.50;5100329;28;20032;-74
2022/01/04 03:44:56;;;;;;;2.83;1.25;;;;;;;8.41;70.56;94316.47;5090422;28;20482;-74
2022/01/04 03:47:22;;;;;;;1.70;1.10;;;;;;;8.37;71.88;94307.59;5097171;28;20048;-74
2022/01/04 03:49:47;;;;;;;2.65;1.33;;;;;;;8.53;70.31;94289.06;5106603;28;20434;-74
2022/01/04 03:52:13;;;;;;;2.00;1.10;;;;;;;8.63;69.03;94278.41;5095346;28;20088;-74
2022/01/04 03:54:38;;;;;;;2.80;1.10;;;;;;;8.65;69.51;94278.91;5091937;28;20040;-74
2022/01/04 03:57:04;;;;;;;2.53;1.13;;;;;;;8.83;68.52;94270.22;5094221;28;20043;-74
2022/01/04 03:59:30;;;;;;;2.25;1.20;;;;;;;8.92;67.75;94275.59;5094723;28;20055;-73
2022/01/04 04:01:55;;;;;;;1.98;1.00;;;;;;;9.09;66.81;94269.75;5102543;28;20683;-74
2022/01/04 04:04:21;;;;;;;1.27;1.05;;;;;;;9.09;67.50;94259.28;5095415;28;20040;-74
2022/01/04 04:06:47;;;;;;;1.20;0.75;;;;;;;9.09;68.27;94259.28;5099240;28;20106;-74
2022/01/04 04:09:12;;;;;;;2.45;0.98;;;;;;;9.02;68.79;94264.13;5105717;28;20043;-75
2022/01/04 04:11:38;;;;;;;3.30;1.40;;;;;;;8.91;72.17;94257.53;5089877;28;20051;-75
2022/01/04 04:14:03;;;;;;;4.10;1.40;;;;;;;8.63;72.39;94252.19;5090254;28;20071;-75
2022/01/04 04:16:29;;;;;;;4.05;1.30;;;;;;;8.45;73.54;94254.56;5089948;28;20051;-75
2022/01/04 04:18:54;;;;;;;3.03;1.40;;;;;;;8.13;74.16;94245.59;5090223;28;20051;-75
2022/01/04 04:21:20;;;;;;;3.55;1.20;;;;;;;7.92;75.46;94250.31;5098101;28;20035;-74
2022/01/04 04:23:46;;;;;;;3.95;1.30;;;;;;;7.78;75.91;94236.38;5106388;27;20032;-75
2022/01/04 04:26:11;;;;;;;2.65;1.20;;;;;;;7.65;77.66;94243.09;5089710;28;20043;-75
2022/01/04 04:28:36;;;;;;;1.60;1.00;;;;;;;7.55;79.00;94240.59;5089883;28;20115;-75
2022/01/04 04:31:05;;;;;;;2.70;1.20;;;;;;;7.48;80.06;94234.91;5090268;28;20047;-75
2022/01/04 04:33:30;;;;;;;4.03;1.40;;;;;;;7.35;79.70;94231.91;5089944;28;20493;-75
2022/01/04 04:35:56;;;;;;;3.22;1.40;;;;;;;7.26;82.74;94228.38;5101958;28;20043;-74
2022/01/04 04:38:22;;;;;;;3.28;1.50;;;;;;;7.05;83.17;94227.81;5103659;28;20032;-75
2022/01/04 04:40:47;;;;;;;3.45;1.38;;;;;;;7.01;84.93;94222.38;5094591;28;20552;-75
2022/01/04 04:43:13;;;;;;;4.57;1.50;;;;;;;6.93;85.72;94225.56;5105482;28;20111;-74
2022/01/04 04:45:38;;;;;;;4.45;1.50;;;;;;;6.85;86.09;94218.31;5107193;28;20046;-75
2022/01/04 04:48:04;;;;;;;1.60;1.27;;;;;;;6.73;87.22;94211.63;5089858;28;20728;-75
2022/01/04 04:50:31;;;;;;;2.83;1.30;;;;;;;6.66;88.99;94205.97;5105252;28;20044;-75
2022/01/04 04:52:57;;;;;;;4.03;1.38;;;;;;;6.63;89.13;94201.28;5090285;28;20092;-75
2022/01/04 04:55:23;;;;;;;2.55;1.30;;;;;;;6.57;89.71;94202.41;5093287;28;20437;-75
2022/01/04 04:57:48;;;;;;;2.45;1.60;;;;;;;6.53;90.25;94196.16;5089510;28;20044;-76
2022/01/04 05:00:14;;;;;;;1.98;1.20;;;;;;;6.49;92.29;94195.16;5094913;28;20067;-75
2022/01/04 05:02:40;;;;;;;3.05;1.25;;;;;;;6.41;92.70;94184.22;5101878;28;20040;-76
2022/01/04 05:05:07;;;;;;;2.33;1.40;;;;;;;6.43;93.22;94188.41;5091139;28;20090;-76
2022/01/04 05:07:34;;;;;;;3.72;1.25;;;;;;;6.43;92.76;94185.78;5100071;28;20055;-75
2022/01/04 05:10:00;;;;;;;2.83;1.45;;;;;;;6.41;93.34;94186.84;5088642;28;20115;-75
2022/01/04 05:12:25;;;;;;;3.38;1.70;;;;;;;6.40;93.23;94177.44;5108781;28;20048;-76
2022/01/04 05:14:51;;;;;;;3.40;1.40;;;;;;;6.45;92.65;94183.69;5109133;28;20466;-76
2022/01/04 05:17:17;;;;;;;5.30;1.50;;;;;;;6.40;92.92;94182.66;5089361;28;20044;-76
2022/01/04 05:19:42;;;;;;;7.15;1.67;;;;;;;6.39;93.72;94175.91;5092275;28;20035;-75
2022/01/04 05:22:08;;;;;;;3.92;1.55;;;;;;;6.37;94.27;94183.22;5105950;28;20078;-75
2022/01/04 05:24:34;;;;;;;3.85;1.70;;;;;;;6.31;94.16;94179.09;5088154;28;20043;-75
2022/01/04 05:27:00;;;;;;;4.30;1.73;;;;;;;6.27;95.72;94162.41;5098043;28;20047;-75
2022/01/04 05:29:26;;;;;;;15.38;2.05;;;;;;;6.25;96.25;94174.97;5098317;28;20550;-75
2022/01/04 05:31:51;;;;;;;14.15;2.05;;;;;;;6.23;96.78;94169.22;5089166;28;20045;-75
2022/01/04 05:34:17;;;;;;;4.20;1.50;;;;;;;6.20;96.25;94161.94;5088384;28;20044;-76
2022/01/04 05:36:43;;;;;;;2.92;1.35;;;;;;;6.21;97.93;94158.28;5088501;28;20075;-75
2022/01/04 05:39:08;;;;;;;3.53;1.50;;;;;;;6.23;97.31;94156.16;5097621;28;20410;-75
2022/01/04 05:41:34;;;;;;;2.90;1.75;;;;;;;6.21;98.24;94166.13;5104701;27;20417;-76
2022/01/04 05:43:59;;;;;;;3.38;1.50;;;;;;;6.16;97.55;94166.16;5102824;28;20044;-75
2022/01/04 05:46:25;;;;;;;3.38;1.63;;;;;;;6.11;98.26;94164.38;5088148;28;20047;-76
2022/01/04 05:48:51;;;;;;;2.67;1.58;;;;;;;6.14;98.35;94163.06;5088938;28;20661;-75
2022/01/04 05:51:16;;;;;;;3.45;1.40;;;;;;;6.09;98.64;94155.25;5088175;28;20545;-75
2022/01/04 05:53:42;;;;;;;2.78;1.55;;;;;;;6.07;99.24;94164.13;5088481;28;20044;-75
2022/01/04 05:56:07;;;;;;;3.10;1.52;;;;;;;6.07;100.00;94156.28;5088976;28;20052;-75
2022/01/04 05:58:33;;;;;;;4.63;1.90;;;;;;;6.07;100.00;94158.13;5093378;28;20036;-75
2022/01/04 06:00:58;;;;;;;8.00;1.95;;;;;;;6.07;100.00;94158.13;5095521;28;20032;-76
2022/01/04 06:03:24;;;;;;;2.17;1.40;;;;;;;6.04;100.00;94164.69;5104675;27;20049;-75
2022/01/04 06:05:50;;;;;;;3.33;1.67;;;;;;;6.00;100.00;94158.44;5119980;28;20090;-75
2022/01/04 06:08:15;;;;;;;2.65;1.55;;;;;;;5.99;100.00;94156.91;5106366;28;20107;-75
2022/01/04 06:10:43;;;;;;;2.95;1.60;;;;;;;5.93;100.00;94155.31;5091727;28;20040;-76
2022/01/04 06:15:38;;;;;;;4.63;2.70;;;;;;;5.86;100.00;94160.06;5092828;28;20044;-76
2022/01/04 06:18:04;;;;;;;3.20;1.60;;;;;;;5.73;100.00;94159.66;5088398;28;20040;-75
2022/01/04 06:20:30;;;;;;;4.03;1.73;;;;;;;5.61;100.00;94156.59;5107989;28;20046;-75
2022/01/04 06:22:56;;;;;;;4.10;1.90;;;;;;;5.58;100.00;94159.75;5111026;28;20679;-75
2022/01/04 06:25:22;;;;;;;4.43;1.98;;;;;;;5.65;100.00;94157.63;5088467;28;20051;-75
2022/01/04 06:27:50;;;;;;;5.20;1.70;;;;;;;5.82;100.00;94152.03;5110288;28;20052;-75
2022/01/04 06:30:18;;;;;;;4.47;1.50;;;;;;;5.83;100.00;94163.25;5091971;28;20107;-75
2022/01/04 06:32:44;;;;;;;3.20;1.50;;;;;;;5.85;100.00;94150.72;5096083;28;20040;-75
2022/01/04 06:35:11;;;;;;;6.03;1.83;;;;;;;5.81;100.00;94157.53;5104783;28;20514;-75
2022/01/04 06:37:37;;;;;;;2.22;1.40;;;;;;;5.79;100.00;94146.56;5108328;28;20047;-75
2022/01/04 06:40:03;;;;;;;2.35;1.60;;;;;;;5.73;100.00;94151.03;5089428;28;20929;-75
2022/01/04 06:42:29;;;;;;;4.63;2.22;;;;;;;5.80;100.00;94140.28;5108204;28;20046;-75
2022/01/04 06:44:54;;;;;;;4.55;1.60;;;;;;;5.84;100.00;94133.47;5097911;28;20044;-75
2022/01/04 06:47:20;;;;;;;4.68;1.80;;;;;;;5.92;100.00;94119.84;5094937;28;20124;-75
2022/01/04 06:49:45;;;;;;;2.78;1.52;;;;;;;5.72;100.00;94121.53;5106520;28;20525;-75
2022/01/04 06:52:11;;;;;;;4.70;1.80;;;;;;;5.64;100.00;94114.28;5087986;28;20505;-75
2022/01/04 06:54:36;;;;;;;4.97;1.58;;;;;;;5.81;100.00;94102.69;5100426;28;20036;-76
2022/01/04 06:57:02;;;;;;;3.70;1.90;;;;;;;5.80;100.00;94095.91;5095467;28;20044;-75
2022/01/04 06:59:28;;;;;;;4.60;1.88;;;;;;;5.76;100.00;94111.34;5091830;28;20062;-75
2022/01/04 07:01:54;;;;;;;5.57;1.83;;;;;;;5.78;100.00;94098.03;5098914;28;20051;-75
2022/01/04 07:04:19;;;;;;;7.35;2.10;;;;;;;5.77;100.00;94097.22;5109061;28;20079;-76
2022/01/04 07:06:45;;;;;;;3.70;2.05;;;;;;;5.68;100.00;94110.09;5088671;28;20051;-75
2022/01/04 07:09:10;;;;;;;6.07;1.90;;;;;;;5.56;100.00;94112.28;5091970;28;20043;-76
2022/01/04 07:11:37;;;;;;;4.43;1.98;;;;;;;5.57;100.00;94113.81;5100181;28;20058;-75
2022/01/04 07:14:03;;;;;;;8.15;2.30;;;;;;;5.77;100.00;94114.72;5107080;28;20039;-75
2022/01/04 07:16:29;;;;;;;7.57;2.40;;;;;;;5.80;100.00;94107.13;5101295;28;20598;-75
2022/01/04 07:18:55;;;;;;;5.72;2.20;;;;;;;5.83;100.00;94100.59;5101467;28;20040;-75
2022/01/04 07:21:21;;;;;;;6.45;2.30;;;;;;;5.80;100.00;94111.56;5100167;28;20058;-75
2022/01/04 07:23:48;;;;;;;6.93;2.00;;;;;;;5.77;100.00;94102.44;5106835;28;20040;-75
2022/01/04 07:26:16;;;;;;;4.45;1.98;;;;;;;5.83;100.00;94095.34;5097492;28;20040;-75
2022/01/04 07:28:43;;;;;;;6.00;1.90;;;;;;;5.75;100.00;94088.09;5091374;28;20028;-75
2022/01/04 07:31:09;;;;;;;5.75;2.17;;;;;;;5.83;100.00;94082.31;5106515;28;20382;-76
2022/01/04 07:33:36;;;;;;;7.28;2.05;;;;;;;5.85;100.00;94070.53;5103796;28;20094;-75
2022/01/04 07:36:02;;;;;;;8.57;2.40;;;;;;;5.83;100.00;94070.06;5072655;28;20039;-75
2022/01/04 07:38:27;;;;;;;5.95;2.33;;;;;;;5.85;100.00;94067.16;5091105;28;20386;-75
2022/01/04 07:40:53;;;;;;;6.15;1.80;;;;;;;5.84;100.00;94060.38;5095886;28;20088;-75
2022/01/04 07:43:19;;;;;;;4.20;1.90;;;;;;;5.91;100.00;94055.63;5088281;28;20040;-75
2022/01/04 07:45:45;;;;;;;3.00;1.60;;;;;;;6.03;100.00;94047.44;5105839;28;20039;-75
2022/01/04 07:48:11;;;;;;;4.47;1.60;;;;;;;6.11;100.00;94044.22;5093589;28;20038;-75
2022/01/04 07:50:38;;;;;;;4.28;1.80;;;;;;;6.30;100.00;94041.66;5090865;28;20044;-75
2022/01/04 07:53:04;;;;;;;2.22;1.50;;;;;;;6.52;100.00;94032.53;5072989;28;20040;-75
2022/01/04 07:55:30;;;;;;;3.00;1.27;;;;;;;6.72;100.00;94027.09;5098484;28;20052;-76
2022/01/04 07:57:55;;;;;;;5.18;1.30;;;;;;;6.76;100.00;94020.22;5092634;28;20835;-76
2022/01/04 08:00:21;;;;;;;4.50;1.50;;;;;;;6.85;100.00;94019.59;5109985;27;20071;-75
2022/01/04 08:02:46;;;;;;;2.60;1.08;;;;;;;7.08;100.00;94018.75;5118741;27;20136;-76
2022/01/04 08:05:12;;;;;;;3.33;1.23;;;;;;;7.20;100.00;94020.19;5095872;28;20035;-76
2022/01/04 08:07:38;;;;;;;3.33;1.35;;;;;;;7.28;100.00;94011.66;5104197;28;20814;-75
2022/01/04 08:10:04;;;;;;;3.45;1.20;;;;;;;7.34;100.00;93999.28;5089349;28;20111;-76
2022/01/04 08:12:30;;;;;;;3.08;1.35;;;;;;;7.42;100.00;93991.56;5113546;27;20093;-76
2022/01/04 08:14:55;;;;;;;1.48;1.10;;;;;;;7.52;100.00;93989.84;5102438;27;20477;-75
2022/01/04 08:17:21;;;;;;;2.40;1.10;;;;;;;7.60;100.00;93989.19;5093494;27;20099;-75
2022/01/04 08:19:47;;;;;;;2.33;1.05;;;;;;;7.82;100.00;93977.31;5103393;27;20040;-76
2022/01/04 08:22:13;;;;;;;4.47;1.20;;;;;;;7.74;100.00;93969.06;5094783;27;20067;-76
2022/01/04 08:24:38;;;;;;;2.85;1.00;;;;;;;7.89;100.00;93972.47;5091656;28;20115;-75
2022/01/04 08:27:04;;;;;;;2.60;1.08;;;;;;;8.00;100.00;93968.56;5095657;28;20478;-76
2022/01/04 08:29:31;;;;;;;2.95;1.10;;;;;;;8.07;100.00;93966.34;5107682;27;20065;-76
2022/01/04 08:31:58;;;;;;;2.38;0.82;;;;;;;8.10;100.00;93963.19;5094886;28;20067;-77
2022/01/04 08:34:23;;;;;;;1.88;0.93;;;;;;;8.10;100.00;93957.94;5105686;27;20103;-75
2022/01/04 08:36:49;;;;;;;1.90;1.02;;;;;;;8.19;100.00;93960.66;5111180;27;20683;-75
2022/01/04 08:39:15;;;;;;;1.08;0.77;;;;;;;8.22;100.00;93938.34;5102794;28;20032;-78
2022/01/04 08:41:42;;;;;;;2.10;1.02;;;;;;;8.24;100.00;93936.94;5111688;28;20092;-77
2022/01/04 08:44:08;;;;;;;3.67;1.20;;;;;;;8.23;100.00;93934.63;5110456;28;20035;-77
2022/01/04 08:46:36;;;;;;;1.70;0.90;;;;;;;8.19;100.00;93933.66;5091398;28;20035;-77
2022/01/04 08:49:08;;;;;;;4.25;1.13;;;;;;;8.19;100.00;93933.66;5111032;28;20122;-77
2022/01/04 08:51:35;;;;;;;2.05;1.00;;;;;;;8.14;100.00;93922.19;5110904;28;20046;-77
2022/01/04 08:54:01;;;;;;;3.70;1.25;;;;;;;8.17;100.00;93920.06;5107305;28;20036;-77
2022/01/04 08:56:26;;;;;;;3.53;1.20;;;;;;;8.09;100.00;93914.44;5102189;28;20055;-78
2022/01/04 08:58:53;;;;;;;6.00;1.50;;;;;;;8.15;100.00;93913.28;5090883;28;20044;-76
2022/01/04 09:01:18;;;;;;;2.80;1.08;;;;;;;8.18;100.00;93919.00;5101930;28;20618;-75
2022/01/04 09:03:44;;;;;;;2.08;1.30;;;;;;;8.12;100.00;93908.63;5097409;28;20040;-76
2022/01/04 09:06:11;;;;;;;2.13;1.27;;;;;;;8.07;100.00;93916.56;5094003;28;20512;-76
2022/01/04 09:08:37;;;;;;;4.95;1.40;;;;;;;8.07;100.00;93906.09;5105063;28;20486;-78
2022/01/04 09:11:03;;;;;;;2.50;1.30;;;;;;;8.06;100.00;93894.09;5091872;28;20040;-76
2022/01/04 09:13:37;;;;;;;4.47;1.48;;;;;;;8.05;100.00;93887.28;5092703;27;20042;-76
2022/01/04 09:18:50;;;;;;;2.45;1.35;;;;;;;7.98;100.00;93889.53;5091032;27;20039;-77
2022/01/04 09:21:24;;;;;;;2.65;1.60;;;;;;;7.95;100.00;93887.50;5095815;27;20047;-77
2022/01/04 09:23:53;;;;;;;2.28;1.40;;;;;;;7.98;100.00;93892.13;5089093;28;20122;-77
2022/01/04 09:26:19;;;;;;;3.75;1.60;;;;;;;7.91;100.00;93881.28;5110100;27;20040;-76
2022/01/04 09:28:46;;;;;;;3.92;1.80;;;;;;;7.91;100.00;93870.81;5095035;28;20098;-75
2022/01/04 09:31:12;;;;;;;2.28;1.13;;;;;;;8.02;100.00;93869.53;5091146;28;20109;-78
2022/01/04 09:33:38;;;;;;;3.15;1.40;;;;;;;8.01;100.00;93870.59;5090554;28;20047;-77
2022/01/04 09:36:04;;;;;;;3.45;1.35;;;;;;;8.00;100.00;93874.28;5095395;28;20050;-76
2022/01/04 09:38:30;;;;;;;2.85;1.50;;;;;;;8.01;100.00;93870.59;5097669;28;20036;-76
2022/01/04 09:40:56;;;;;;;3.03;1.33;;;;;;;7.98;100.00;93871.19;5069616;28;20093;-77
2022/01/04 09:43:22;;;;;;;2.85;1.50;;;;;;;8.02;100.00;93871.38;5070674;28;20047;-76
2022/01/04 09:45:49;;;;;;;2.58;1.52;;;;;;;8.05;100.00;93871.56;5085860;28;20050;-77
2022/01/04 09:48:15;;;;;;;5.85;1.77;;;;;;;8.13;100.00;93863.03;5092872;28;20036;-76
2022/01/04 09:50:42;;;;;;;2.55;1.50;;;;;;;8.11;100.00;93859.91;5095268;28;20047;-77
2022/01/04 09:53:09;;;;;;;4.15;1.80;;;;;;;8.25;100.00;93852.03;5089655;28;20094;-77
2022/01/04 09:55:38;;;;;;;3.28;1.67;;;;;;;8.30;100.00;93841.44;5088460;28;20051;-76
2022/01/04 09:58:04;;;;;;;4.80;2.40;;;;;;;8.33;100.00;93834.81;5091715;28;20483;-75
2022/01/04 10:00:30;;;;;;;3.38;2.05;;;;;;;8.32;100.00;93833.28;5108010;28;20071;-77
2022/01/04 10:03:21;;;;;;;4.60;2.30;;;;;;;8.36;100.00;93813.28;5092784;28;20040;-77
2022/01/04 10:05:47;;;;;;;4.53;1.77;;;;;;;8.44;100.00;93825.69;5097499;28;20039;-77
2022/01/04 10:08:14;;;;;;;2.72;1.77;;;;;;;8.44;100.00;93817.81;5094663;28;20040;-77
2022/01/04 10:10:41;;;;;;;4.95;1.40;;;;;;;8.51;100.00;93811.41;5077378;28;20047;-76
2022/01/04 10:13:14;;;;;;;3.20;1.60;;;;;;;8.65;100.00;93822.63;5092636;28;20115;-76
2022/01/04 10:15:47;;;;;;;2.50;1.50;;;;;;;8.82;100.00;93822.72;5100975;28;20050;-74
2022/01/04 10:18:12;;;;;;;2.38;1.50;;;;;;;8.88;100.00;93814.72;5096452;28;20047;-75
2022/01/04 10:20:43;;;;;;;3.55;1.50;;;;;;;8.96;100.00;93814.00;5104843;28;20040;-74
2022/01/04 10:23:11;;;;;;;2.42;1.63;;;;;;;8.98;100.00;93811.88;5095525;28;20508;-74
2022/01/04 10:25:40;;;;;;;3.55;1.40;;;;;;;9.06;100.00;93803.25;5095155;28;20497;-74
2022/01/04 10:28:06;;;;;;;1.70;1.40;;;;;;;9.21;99.53;93798.69;5092282;28;20043;-76
2022/01/04 10:30:43;;;;;;;2.00;1.30;;;;;;;9.37;97.86;93789.34;5094714;28;20047;-77
2022/01/04 10:33:13;;;;;;;4.38;1.20;;;;;;;9.48;98.63;93788.00;5105758;28;20043;-76
2022/01/04 10:35:43;;;;;;;1.60;1.30;;;;;;;9.60;98.92;93781.41;5112262;28;20043;-76
2022/01/04 10:38:11;;;;;;;3.75;1.38;;;;;;;9.90;95.10;93782.38;5099026;28;20070;-77
2022/01/04 10:40:38;;;;;;;1.70;1.30;;;;;;;10.09;93.16;93778.72;5099923;28;20036;-77
2022/01/04 10:43:18;;;;;;;3.28;1.00;;;;;;;10.26;94.10;93767.41;5098731;28;20040;-77
2022/01/04 10:45:45;;;;;;;2.85;1.58;;;;;;;10.46;91.22;93772.09;5098444;28;20090;-79
2022/01/04 10:48:11;;;;;;;2.17;1.30;;;;;;;10.57;89.44;93762.78;5097215;28;20039;-78
2022/01/04 10:50:38;;;;;;;1.73;1.13;;;;;;;10.76;89.17;93761.69;5111078;28;20498;-78
2022/01/04 10:53:04;;;;;;;3.53;1.20;;;;;;;10.98;85.08;93765.97;5118551;28;20040;-78
2022/01/04 10:55:33;;;;;;;1.23;1.10;;;;;;;10.97;85.44;93753.13;5113577;28;20043;-78
2022/01/04 10:58:00;;;;;;;2.63;1.13;;;;;;;11.06;85.54;93751.22;5116898;28;20182;-77
2022/01/04 11:00:26;;;;;;;1.73;1.20;;;;;;;11.15;84.10;93744.06;5115813;28;20040;-78
2022/01/04 11:02:52;;;;;;;2.00;1.20;;;;;;;11.17;84.36;93746.38;5115533;28;20062;-78
2022/01/04 11:05:21;;;;;;;4.53;1.15;;;;;;;11.26;83.09;93747.91;5112539;28;20329;-78
2022/01/04 11:07:56;;;;;;;3.63;1.52;;;;;;;11.38;82.64;93735.94;5111241;28;20416;-78
2022/01/04 11:10:22;;;;;;;1.95;1.17;;;;;;;11.47;81.16;93734.00;5112939;28;20675;-78
2022/01/04 11:12:48;;;;;;;1.88;1.10;;;;;;;11.57;82.69;93733.66;5111909;28;20040;-79
2022/01/04 11:15:13;;;;;;;1.90;1.20;;;;;;;11.74;80.23;93710.94;5110691;28;20100;-77
2022/01/04 11:17:40;;;;;;;1.35;1.10;;;;;;;11.89;79.61;93718.25;5106986;28;20044;-79
2022/01/04 11:20:07;;;;;;;1.42;0.98;;;;;;;12.21;77.15;93692.31;5115575;28;20044;-77
2022/01/04 11:22:34;;;;;;;1.30;1.20;;;;;;;12.81;76.03;93689.38;5107877;28;20066;-78
2022/01/04 11:25:02;;;;;;;1.40;1.23;;;;;;;12.94;75.44;93685.69;5112570;28;20120;-79
2022/01/04 11:27:31;;;;;;;3.03;1.20;;;;;;;12.76;73.78;93679.06;5116121;28;20036;-79
2022/01/04 11:30:00;;;;;;;1.45;1.05;;;;;;;13.03;72.86;93676.88;5108293;28;20527;-76
2022/01/04 11:32:28;;;;;;;1.38;1.02;;;;;;;13.41;71.37;93671.28;5111473;28;20395;-76
2022/01/04 11:35:03;;;;;;;1.10;1.00;;;;;;;13.58;70.11;93649.13;5108253;28;20039;-76
2022/01/04 11:37:29;;;;;;;6.60;1.40;;;;;;;13.88;71.20;93651.50;5099686;28;20044;-76
2022/01/04 11:39:56;;;;;;;1.25;1.10;;;;;;;13.94;69.55;93654.69;5103518;28;20476;-76
2022/01/04 11:42:31;;;;;;;1.77;1.15;;;;;;;14.30;66.00;93655.63;5109918;28;20039;-75